Minneapolis ARTCC

The Midwest's Air Route Traffic Control Center

KANE Anoka County-Blaine Airport (Janes Field)
Anoka, MN
Current Weather Information

KANE 190716Z AUTO 00000KT 10SM CLR M15/M17 A3052 RMK AO2


ICAO/IATA:
KANE/ANE
Radar Facility:
M98
Conditions:
VFR
Airport Diagram:
KANE
Online Controllers Split
No controllers online.
Flight OperationsView
AUA97KK
Departed
KMSP

KGPI
Weather Conditions
KMSP VFR30.55230/04
KRST VFR30.51260/04
KOMA VFR30.56340/06
KDLH VFR30.43310/05
KGFK VFR30.51190/06
KFAR VFR30.53200/04
Charts Lookup
Today's Schedule
No scheduled ATC today.
All content © 2011-2019 by the VATSIM Minneapolis ARTCC unless previous or other copyright exists; images, logos or other content of that nature remain property of their respective copyright owners. All information contained on these pages are for flight simulation use only on the VATSIM network, and shall not be used for real-world navigation or aviation purposes. This site is in no way affiliated with the FAA, the real Minneapolis ARTCC, or any other governing aviation agency or group. All content contained herein is approved for use on the VATSIM Network. Source code copyright © 2019 Maius Wong, and the software on this website is protected by copyright law. This website is licensed to the Minneapolis ARTCC on VATSIM. Use by any other facility is prohibited. Banner images courtesy of Chris Lundberg, Shane VanHoven, and Tony Webster.